Flugplatz Dresden

Bericht für EDDC

vom 09.08. um 05:20 UTC

Wind 1 kt aus 160°

Sichtweite 10 km oder mehr

gute Sicht, keine Wolken < 5000 ft, keine CB, keine Wettererscheinungen (CAVOK)

Temperatur 14.0°C

Taupunkt 8.0°C

Luftfeuchtigkeit 67%

Luftdruck 1026 hPa

keine wesentliche Wetteränderung innerhalb den nächsten 2 Stunden zu erwarten

EDDC 090520Z AUTO 16001KT CAVOK 14/08 Q1026 NOSIG

Prognose für EDDC

vom 09.08. um 05:00 UTC

Zwischen 06:00 UTC und 06:00 UTC

Wind 4 kt aus 40°

Sichtweite 10 km oder mehr

keine signifikanten Wettererscheinungen

keine Wolken

TAF EDDC 090500Z 0906/1006 04004KT CAVOK
Impressum